sensor_id;sensor_type;location;lat;lon;timestamp;P1;durP1;ratioP1;P2;durP2;ratioP2
71395;SDS011;59888;55.814;37.132;2022-08-23T00:01:51;13.70;;;6.95;;
71395;SDS011;59888;55.814;37.132;2022-08-23T00:04:19;16.95;;;7.47;;
71395;SDS011;59888;55.814;37.132;2022-08-23T00:06:48;15.18;;;8.25;;
71395;SDS011;59888;55.814;37.132;2022-08-23T00:09:16;14.85;;;8.18;;
71395;SDS011;59888;55.814;37.132;2022-08-23T00:11:44;13.05;;;7.65;;
71395;SDS011;59888;55.814;37.132;2022-08-23T00:14:15;16.45;;;8.80;;
71395;SDS011;59888;55.814;37.132;2022-08-23T00:16:46;12.82;;;8.27;;
71395;SDS011;59888;55.814;37.132;2022-08-23T00:19:13;15.93;;;8.38;;
71395;SDS011;59888;55.814;37.132;2022-08-23T00:21:41;14.35;;;9.13;;
71395;SDS011;59888;55.814;37.132;2022-08-23T00:24:08;15.68;;;8.98;;
71395;SDS011;59888;55.814;37.132;2022-08-23T00:29:21;17.80;;;10.20;;
71395;SDS011;59888;55.814;37.132;2022-08-23T00:31:50;17.15;;;9.38;;
71395;SDS011;59888;55.814;37.132;2022-08-23T00:34:16;14.75;;;10.07;;
71395;SDS011;59888;55.814;37.132;2022-08-23T00:36:42;15.15;;;10.27;;
71395;SDS011;59888;55.814;37.132;2022-08-23T00:39:12;17.30;;;10.05;;
71395;SDS011;59888;55.814;37.132;2022-08-23T00:41:38;22.83;;;12.27;;
71395;SDS011;59888;55.814;37.132;2022-08-23T00:44:04;23.45;;;11.00;;
71395;SDS011;59888;55.814;37.132;2022-08-23T00:46:55;26.15;;;11.60;;
71395;SDS011;59888;55.814;37.132;2022-08-23T00:49:53;20.88;;;10.70;;
71395;SDS011;59888;55.814;37.132;2022-08-23T00:52:49;19.35;;;10.38;;
71395;SDS011;59888;55.814;37.132;2022-08-23T00:55:17;21.83;;;11.63;;
71395;SDS011;59888;55.814;37.132;2022-08-23T00:57:45;17.27;;;11.10;;
71395;SDS011;59888;55.814;37.132;2022-08-23T01:00:12;20.60;;;11.98;;
71395;SDS011;59888;55.814;37.132;2022-08-23T01:02:38;19.08;;;11.48;;
71395;SDS011;59888;55.814;37.132;2022-08-23T01:05:05;23.85;;;11.73;;
71395;SDS011;59888;55.814;37.132;2022-08-23T01:07:39;17.85;;;12.35;;
71395;SDS011;59888;55.814;37.132;2022-08-23T01:10:13;19.05;;;12.10;;
71395;SDS011;59888;55.814;37.132;2022-08-23T01:15:20;19.92;;;11.77;;
71395;SDS011;59888;55.814;37.132;2022-08-23T01:17:55;18.02;;;11.73;;
71395;SDS011;59888;55.814;37.132;2022-08-23T01:21:18;19.20;;;12.98;;
71395;SDS011;59888;55.814;37.132;2022-08-23T01:23:38;21.08;;;11.98;;
71395;SDS011;59888;55.814;37.132;2022-08-23T01:26:07;23.80;;;12.45;;
71395;SDS011;59888;55.814;37.132;2022-08-23T01:28:36;20.60;;;11.25;;
71395;SDS011;59888;55.814;37.132;2022-08-23T01:31:05;19.38;;;11.85;;
71395;SDS011;59888;55.814;37.132;2022-08-23T01:33:33;19.90;;;12.20;;
71395;SDS011;59888;55.814;37.132;2022-08-23T01:36:03;22.30;;;12.48;;
71395;SDS011;59888;55.814;37.132;2022-08-23T01:38:33;19.42;;;12.50;;
71395;SDS011;59888;55.814;37.132;2022-08-23T01:40:59;20.77;;;12.25;;
71395;SDS011;59888;55.814;37.132;2022-08-23T01:43:25;18.13;;;12.43;;
71395;SDS011;59888;55.814;37.132;2022-08-23T01:45:52;19.58;;;12.90;;
71395;SDS011;59888;55.814;37.132;2022-08-23T01:48:21;24.02;;;12.93;;
71395;SDS011;59888;55.814;37.132;2022-08-23T01:50:48;22.13;;;12.73;;
71395;SDS011;59888;55.814;37.132;2022-08-23T01:53:14;20.20;;;12.73;;
71395;SDS011;59888;55.814;37.132;2022-08-23T01:55:46;23.08;;;12.73;;
71395;SDS011;59888;55.814;37.132;2022-08-23T01:58:15;20.33;;;12.63;;
71395;SDS011;59888;55.814;37.132;2022-08-23T02:00:41;21.95;;;13.18;;
71395;SDS011;59888;55.814;37.132;2022-08-23T02:03:11;20.65;;;11.93;;
71395;SDS011;59888;55.814;37.132;2022-08-23T02:05:38;24.08;;;12.43;;
71395;SDS011;59888;55.814;37.132;2022-08-23T02:08:05;22.70;;;12.75;;
71395;SDS011;59888;55.814;37.132;2022-08-23T02:10:53;23.55;;;12.68;;
71395;SDS011;59888;55.814;37.132;2022-08-23T02:13:19;21.58;;;13.45;;
71395;SDS011;59888;55.814;37.132;2022-08-23T02:15:47;24.00;;;13.27;;
71395;SDS011;59888;55.814;37.132;2022-08-23T02:18:17;23.25;;;12.85;;
71395;SDS011;59888;55.814;37.132;2022-08-23T02:20:45;23.67;;;12.77;;
71395;SDS011;59888;55.814;37.132;2022-08-23T02:23:15;22.48;;;13.15;;
71395;SDS011;59888;55.814;37.132;2022-08-23T02:25:42;22.95;;;13.48;;
71395;SDS011;59888;55.814;37.132;2022-08-23T02:28:09;23.23;;;14.02;;
71395;SDS011;59888;55.814;37.132;2022-08-23T02:30:36;21.05;;;12.55;;
71395;SDS011;59888;55.814;37.132;2022-08-23T02:33:03;19.55;;;13.02;;
71395;SDS011;59888;55.814;37.132;2022-08-23T02:35:29;24.77;;;12.95;;
71395;SDS011;59888;55.814;37.132;2022-08-23T02:38:01;25.75;;;13.18;;
71395;SDS011;59888;55.814;37.132;2022-08-23T02:40:29;32.53;;;14.05;;
71395;SDS011;59888;55.814;37.132;2022-08-23T02:42:55;18.77;;;12.43;;
71395;SDS011;59888;55.814;37.132;2022-08-23T02:45:21;22.25;;;13.25;;
71395;SDS011;59888;55.814;37.132;2022-08-23T02:47:48;21.58;;;12.70;;
71395;SDS011;59888;55.814;37.132;2022-08-23T02:50:21;25.90;;;13.70;;
71395;SDS011;59888;55.814;37.132;2022-08-23T02:52:47;21.08;;;12.85;;
71395;SDS011;59888;55.814;37.132;2022-08-23T02:55:13;22.35;;;12.52;;
71395;SDS011;59888;55.814;37.132;2022-08-23T02:57:39;24.52;;;13.15;;
71395;SDS011;59888;55.814;37.132;2022-08-23T03:00:09;21.60;;;12.90;;
71395;SDS011;59888;55.814;37.132;2022-08-23T03:02:37;22.38;;;13.20;;
71395;SDS011;59888;55.814;37.132;2022-08-23T03:05:04;20.80;;;12.73;;
71395;SDS011;59888;55.814;37.132;2022-08-23T03:07:31;20.95;;;13.02;;
71395;SDS011;59888;55.814;37.132;2022-08-23T03:09:57;25.90;;;13.80;;
71395;SDS011;59888;55.814;37.132;2022-08-23T03:12:25;20.27;;;13.23;;
71395;SDS011;59888;55.814;37.132;2022-08-23T03:14:54;21.70;;;12.55;;
71395;SDS011;59888;55.814;37.132;2022-08-23T03:17:20;20.92;;;13.02;;
71395;SDS011;59888;55.814;37.132;2022-08-23T03:19:47;20.52;;;12.38;;
71395;SDS011;59888;55.814;37.132;2022-08-23T03:22:13;22.45;;;13.13;;
71395;SDS011;59888;55.814;37.132;2022-08-23T03:24:39;24.60;;;12.63;;
71395;SDS011;59888;55.814;37.132;2022-08-23T03:27:05;21.92;;;12.73;;
71395;SDS011;59888;55.814;37.132;2022-08-23T03:29:32;24.73;;;12.77;;
71395;SDS011;59888;55.814;37.132;2022-08-23T03:32:00;22.40;;;14.23;;
71395;SDS011;59888;55.814;37.132;2022-08-23T03:34:32;23.17;;;13.45;;
71395;SDS011;59888;55.814;37.132;2022-08-23T03:36:59;22.15;;;13.70;;
71395;SDS011;59888;55.814;37.132;2022-08-23T03:39:25;21.85;;;12.43;;
71395;SDS011;59888;55.814;37.132;2022-08-23T03:41:53;21.45;;;12.70;;
71395;SDS011;59888;55.814;37.132;2022-08-23T03:44:19;21.23;;;12.88;;
71395;SDS011;59888;55.814;37.132;2022-08-23T03:46:46;21.58;;;13.27;;
71395;SDS011;59888;55.814;37.132;2022-08-23T03:49:11;22.10;;;12.57;;
71395;SDS011;59888;55.814;37.132;2022-08-23T03:51:58;20.35;;;13.02;;
71395;SDS011;59888;55.814;37.132;2022-08-23T03:54:27;21.75;;;12.20;;
71395;SDS011;59888;55.814;37.132;2022-08-23T03:56:55;19.63;;;12.57;;
71395;SDS011;59888;55.814;37.132;2022-08-23T03:59:31;22.25;;;12.75;;
71395;SDS011;59888;55.814;37.132;2022-08-23T04:02:01;20.08;;;12.80;;
71395;SDS011;59888;55.814;37.132;2022-08-23T04:04:29;22.45;;;13.18;;
71395;SDS011;59888;55.814;37.132;2022-08-23T04:07:21;22.95;;;12.45;;
71395;SDS011;59888;55.814;37.132;2022-08-23T04:09:51;20.45;;;12.75;;
71395;SDS011;59888;55.814;37.132;2022-08-23T04:12:18;20.42;;;12.57;;
71395;SDS011;59888;55.814;37.132;2022-08-23T04:14:44;22.13;;;13.15;;
71395;SDS011;59888;55.814;37.132;2022-08-23T04:17:11;20.13;;;12.30;;
71395;SDS011;59888;55.814;37.132;2022-08-23T04:19:38;24.35;;;12.80;;
71395;SDS011;59888;55.814;37.132;2022-08-23T04:22:04;22.77;;;12.57;;
71395;SDS011;59888;55.814;37.132;2022-08-23T04:24:37;18.85;;;11.60;;
71395;SDS011;59888;55.814;37.132;2022-08-23T04:27:04;20.38;;;12.35;;
71395;SDS011;59888;55.814;37.132;2022-08-23T04:29:31;24.90;;;12.45;;
71395;SDS011;59888;55.814;37.132;2022-08-23T04:31:58;22.23;;;12.10;;
71395;SDS011;59888;55.814;37.132;2022-08-23T04:34:25;18.60;;;11.77;;
71395;SDS011;59888;55.814;37.132;2022-08-23T04:36:53;18.35;;;10.88;;
71395;SDS011;59888;55.814;37.132;2022-08-23T04:39:19;19.38;;;11.43;;
71395;SDS011;59888;55.814;37.132;2022-08-23T04:41:46;17.55;;;11.88;;
71395;SDS011;59888;55.814;37.132;2022-08-23T04:44:30;17.90;;;12.13;;
71395;SDS011;59888;55.814;37.132;2022-08-23T04:46:59;19.63;;;11.43;;
71395;SDS011;59888;55.814;37.132;2022-08-23T04:49:26;20.95;;;11.40;;
71395;SDS011;59888;55.814;37.132;2022-08-23T04:51:52;18.40;;;11.82;;
71395;SDS011;59888;55.814;37.132;2022-08-23T04:54:18;21.10;;;11.32;;
71395;SDS011;59888;55.814;37.132;2022-08-23T04:57:01;19.58;;;11.60;;
71395;SDS011;59888;55.814;37.132;2022-08-23T04:59:32;19.75;;;10.77;;
71395;SDS011;59888;55.814;37.132;2022-08-23T05:01:58;19.48;;;11.35;;
71395;SDS011;59888;55.814;37.132;2022-08-23T05:04:24;19.92;;;11.75;;
71395;SDS011;59888;55.814;37.132;2022-08-23T05:06:50;18.98;;;10.85;;
71395;SDS011;59888;55.814;37.132;2022-08-23T05:09:16;16.67;;;10.65;;
71395;SDS011;59888;55.814;37.132;2022-08-23T05:11:42;18.92;;;11.05;;
71395;SDS011;59888;55.814;37.132;2022-08-23T05:14:08;19.50;;;11.00;;
71395;SDS011;59888;55.814;37.132;2022-08-23T05:16:35;16.83;;;10.73;;
71395;SDS011;59888;55.814;37.132;2022-08-23T05:19:07;20.88;;;10.50;;
71395;SDS011;59888;55.814;37.132;2022-08-23T05:21:39;18.15;;;10.60;;
71395;SDS011;59888;55.814;37.132;2022-08-23T05:24:05;16.08;;;10.23;;
71395;SDS011;59888;55.814;37.132;2022-08-23T05:26:32;17.00;;;9.90;;
71395;SDS011;59888;55.814;37.132;2022-08-23T05:28:58;17.17;;;10.25;;
71395;SDS011;59888;55.814;37.132;2022-08-23T05:31:30;14.98;;;10.18;;
71395;SDS011;59888;55.814;37.132;2022-08-23T05:33:59;21.55;;;9.75;;
71395;SDS011;59888;55.814;37.132;2022-08-23T05:36:36;15.98;;;9.77;;
71395;SDS011;59888;55.814;37.132;2022-08-23T05:39:03;17.42;;;9.52;;
71395;SDS011;59888;55.814;37.132;2022-08-23T05:41:31;17.92;;;9.55;;
71395;SDS011;59888;55.814;37.132;2022-08-23T05:43:58;15.95;;;8.90;;
71395;SDS011;59888;55.814;37.132;2022-08-23T05:46:24;17.95;;;8.93;;
71395;SDS011;59888;55.814;37.132;2022-08-23T05:49:12;15.93;;;9.10;;
71395;SDS011;59888;55.814;37.132;2022-08-23T05:51:38;14.52;;;8.48;;
71395;SDS011;59888;55.814;37.132;2022-08-23T05:54:06;16.65;;;8.98;;
71395;SDS011;59888;55.814;37.132;2022-08-23T05:56:35;15.77;;;9.13;;
71395;SDS011;59888;55.814;37.132;2022-08-23T05:59:04;13.65;;;8.43;;
71395;SDS011;59888;55.814;37.132;2022-08-23T06:01:33;13.38;;;8.98;;
71395;SDS011;59888;55.814;37.132;2022-08-23T06:04:07;15.65;;;7.97;;
71395;SDS011;59888;55.814;37.132;2022-08-23T06:06:36;15.32;;;8.80;;
71395;SDS011;59888;55.814;37.132;2022-08-23T06:09:04;12.77;;;8.93;;
71395;SDS011;59888;55.814;37.132;2022-08-23T06:11:32;13.90;;;8.40;;
71395;SDS011;59888;55.814;37.132;2022-08-23T06:14:00;13.90;;;8.93;;
71395;SDS011;59888;55.814;37.132;2022-08-23T06:16:30;14.32;;;8.38;;
71395;SDS011;59888;55.814;37.132;2022-08-23T06:19:02;11.90;;;8.43;;
71395;SDS011;59888;55.814;37.132;2022-08-23T06:21:47;12.82;;;8.05;;
71395;SDS011;59888;55.814;37.132;2022-08-23T06:24:18;16.67;;;8.50;;
71395;SDS011;59888;55.814;37.132;2022-08-23T06:27:08;13.77;;;8.10;;
71395;SDS011;59888;55.814;37.132;2022-08-23T06:29:34;15.38;;;7.57;;
71395;SDS011;59888;55.814;37.132;2022-08-23T06:32:18;16.95;;;8.00;;
71395;SDS011;59888;55.814;37.132;2022-08-23T06:35:04;17.33;;;8.60;;
71395;SDS011;59888;55.814;37.132;2022-08-23T06:37:55;13.00;;;7.95;;
71395;SDS011;59888;55.814;37.132;2022-08-23T06:40:47;11.73;;;7.60;;
71395;SDS011;59888;55.814;37.132;2022-08-23T06:43:25;14.15;;;7.80;;
71395;SDS011;59888;55.814;37.132;2022-08-23T06:46:11;12.60;;;7.90;;
71395;SDS011;59888;55.814;37.132;2022-08-23T06:48:41;10.13;;;7.07;;
71395;SDS011;59888;55.814;37.132;2022-08-23T06:51:11;12.38;;;7.13;;
71395;SDS011;59888;55.814;37.132;2022-08-23T06:53:51;12.77;;;6.97;;
71395;SDS011;59888;55.814;37.132;2022-08-23T06:56:39;15.05;;;7.53;;
71395;SDS011;59888;55.814;37.132;2022-08-23T06:59:12;15.80;;;7.30;;
71395;SDS011;59888;55.814;37.132;2022-08-23T07:04:43;13.95;;;7.25;;
71395;SDS011;59888;55.814;37.132;2022-08-23T07:07:29;8.48;;;6.35;;
71395;SDS011;59888;55.814;37.132;2022-08-23T07:09:56;13.75;;;6.55;;
71395;SDS011;59888;55.814;37.132;2022-08-23T07:12:23;11.57;;;7.20;;
71395;SDS011;59888;55.814;37.132;2022-08-23T07:14:49;13.75;;;6.50;;
71395;SDS011;59888;55.814;37.132;2022-08-23T07:17:15;11.63;;;7.03;;
71395;SDS011;59888;55.814;37.132;2022-08-23T07:19:41;11.77;;;6.63;;
71395;SDS011;59888;55.814;37.132;2022-08-23T07:22:08;13.75;;;6.85;;
71395;SDS011;59888;55.814;37.132;2022-08-23T07:24:35;11.65;;;6.85;;
71395;SDS011;59888;55.814;37.132;2022-08-23T07:27:03;12.20;;;6.63;;
71395;SDS011;59888;55.814;37.132;2022-08-23T07:29:32;12.15;;;6.72;;
71395;SDS011;59888;55.814;37.132;2022-08-23T07:32:00;10.20;;;6.90;;
71395;SDS011;59888;55.814;37.132;2022-08-23T07:34:27;11.98;;;6.85;;
71395;SDS011;59888;55.814;37.132;2022-08-23T07:36:53;12.98;;;6.97;;
71395;SDS011;59888;55.814;37.132;2022-08-23T07:39:20;14.95;;;6.85;;
71395;SDS011;59888;55.814;37.132;2022-08-23T07:41:47;9.70;;;6.55;;
71395;SDS011;59888;55.814;37.132;2022-08-23T07:44:14;15.50;;;6.63;;
71395;SDS011;59888;55.814;37.132;2022-08-23T07:46:43;13.15;;;6.57;;
71395;SDS011;59888;55.814;37.132;2022-08-23T07:49:11;13.07;;;6.40;;
71395;SDS011;59888;55.814;37.132;2022-08-23T07:51:47;11.75;;;6.40;;
71395;SDS011;59888;55.814;37.132;2022-08-23T07:54:16;10.15;;;6.03;;
71395;SDS011;59888;55.814;37.132;2022-08-23T07:57:02;10.93;;;6.82;;
71395;SDS011;59888;55.814;37.132;2022-08-23T07:59:46;16.38;;;7.10;;
71395;SDS011;59888;55.814;37.132;2022-08-23T08:02:27;13.00;;;6.93;;
71395;SDS011;59888;55.814;37.132;2022-08-23T08:04:53;11.55;;;5.93;;
71395;SDS011;59888;55.814;37.132;2022-08-23T08:07:20;13.65;;;7.32;;
71395;SDS011;59888;55.814;37.132;2022-08-23T08:09:52;20.33;;;6.93;;
71395;SDS011;59888;55.814;37.132;2022-08-23T08:12:18;13.68;;;6.95;;
71395;SDS011;59888;55.814;37.132;2022-08-23T08:14:47;10.88;;;6.25;;
71395;SDS011;59888;55.814;37.132;2022-08-23T08:17:15;14.05;;;7.20;;
71395;SDS011;59888;55.814;37.132;2022-08-23T08:20:08;13.30;;;6.70;;
71395;SDS011;59888;55.814;37.132;2022-08-23T08:22:37;14.80;;;7.03;;
71395;SDS011;59888;55.814;37.132;2022-08-23T08:25:09;12.88;;;6.60;;
71395;SDS011;59888;55.814;37.132;2022-08-23T08:27:37;12.65;;;6.95;;
71395;SDS011;59888;55.814;37.132;2022-08-23T08:30:05;13.60;;;6.60;;
71395;SDS011;59888;55.814;37.132;2022-08-23T08:32:34;20.58;;;7.00;;
71395;SDS011;59888;55.814;37.132;2022-08-23T08:35:00;13.82;;;7.22;;
71395;SDS011;59888;55.814;37.132;2022-08-23T08:37:28;10.57;;;6.30;;
71395;SDS011;59888;55.814;37.132;2022-08-23T08:39:55;12.10;;;6.93;;
71395;SDS011;59888;55.814;37.132;2022-08-23T08:50:25;17.42;;;7.07;;
71395;SDS011;59888;55.814;37.132;2022-08-23T08:53:01;12.60;;;7.40;;
71395;SDS011;59888;55.814;37.132;2022-08-23T08:55:54;14.10;;;8.50;;
71395;SDS011;59888;55.814;37.132;2022-08-23T08:58:31;14.90;;;8.05;;
71395;SDS011;59888;55.814;37.132;2022-08-23T09:01:04;20.20;;;7.25;;
71395;SDS011;59888;55.814;37.132;2022-08-23T09:03:32;16.92;;;7.80;;
71395;SDS011;59888;55.814;37.132;2022-08-23T09:11:34;14.68;;;7.97;;
71395;SDS011;59888;55.814;37.132;2022-08-23T09:14:29;15.43;;;8.55;;
71395;SDS011;59888;55.814;37.132;2022-08-23T09:17:03;19.77;;;8.23;;
71395;SDS011;59888;55.814;37.132;2022-08-23T09:19:44;21.80;;;8.80;;
71395;SDS011;59888;55.814;37.132;2022-08-23T09:22:15;17.85;;;8.40;;
71395;SDS011;59888;55.814;37.132;2022-08-23T09:24:56;18.42;;;8.35;;
71395;SDS011;59888;55.814;37.132;2022-08-23T09:27:26;19.70;;;8.05;;
71395;SDS011;59888;55.814;37.132;2022-08-23T09:29:55;16.48;;;8.38;;
71395;SDS011;59888;55.814;37.132;2022-08-23T09:34:52;16.88;;;7.80;;
71395;SDS011;59888;55.814;37.132;2022-08-23T09:40:37;19.50;;;7.88;;
71395;SDS011;59888;55.814;37.132;2022-08-23T09:43:12;17.80;;;8.43;;
71395;SDS011;59888;55.814;37.132;2022-08-23T09:46:02;14.90;;;7.93;;
71395;SDS011;59888;55.814;37.132;2022-08-23T09:48:39;15.55;;;8.68;;
71395;SDS011;59888;55.814;37.132;2022-08-23T09:51:18;12.75;;;6.28;;
71395;SDS011;59888;55.814;37.132;2022-08-23T09:53:51;10.40;;;5.80;;
71395;SDS011;59888;55.814;37.132;2022-08-23T09:56:35;9.77;;;5.95;;
71395;SDS011;59888;55.814;37.132;2022-08-23T09:59:49;13.13;;;5.72;;
71395;SDS011;59888;55.814;37.132;2022-08-23T10:01:55;7.45;;;5.80;;
71395;SDS011;59888;55.814;37.132;2022-08-23T10:07:39;10.18;;;5.38;;
71395;SDS011;59888;55.814;37.132;2022-08-23T10:10:35;8.10;;;5.80;;
71395;SDS011;59888;55.814;37.132;2022-08-23T10:13:13;9.77;;;5.85;;
71395;SDS011;59888;55.814;37.132;2022-08-23T10:15:48;9.32;;;5.80;;
71395;SDS011;59888;55.814;37.132;2022-08-23T10:26:26;9.75;;;5.82;;
71395;SDS011;59888;55.814;37.132;2022-08-23T10:29:05;8.40;;;6.18;;
71395;SDS011;59888;55.814;37.132;2022-08-23T10:32:02;9.18;;;5.70;;
71395;SDS011;59888;55.814;37.132;2022-08-23T10:45:51;7.05;;;6.03;;
71395;SDS011;59888;55.814;37.132;2022-08-23T10:51:02;7.15;;;5.65;;
71395;SDS011;59888;55.814;37.132;2022-08-23T10:53:51;8.07;;;5.80;;
71395;SDS011;59888;55.814;37.132;2022-08-23T10:56:25;8.52;;;5.55;;
71395;SDS011;59888;55.814;37.132;2022-08-23T10:59:17;9.85;;;5.32;;
71395;SDS011;59888;55.814;37.132;2022-08-23T11:02:01;11.32;;;5.53;;
71395;SDS011;59888;55.814;37.132;2022-08-23T11:05:04;10.18;;;5.25;;
71395;SDS011;59888;55.814;37.132;2022-08-23T11:18:36;6.38;;;5.25;;
71395;SDS011;59888;55.814;37.132;2022-08-23T11:31:40;8.00;;;5.88;;
71395;SDS011;59888;55.814;37.132;2022-08-23T11:34:18;9.43;;;6.07;;
71395;SDS011;59888;55.814;37.132;2022-08-23T11:40:05;7.60;;;5.70;;
71395;SDS011;59888;55.814;37.132;2022-08-23T11:45:11;12.38;;;4.88;;
71395;SDS011;59888;55.814;37.132;2022-08-23T11:48:03;6.75;;;4.88;;
71395;SDS011;59888;55.814;37.132;2022-08-23T11:50:45;6.38;;;5.60;;
71395;SDS011;59888;55.814;37.132;2022-08-23T12:01:34;9.90;;;3.80;;
71395;SDS011;59888;55.814;37.132;2022-08-23T12:04:09;8.15;;;4.10;;
71395;SDS011;59888;55.814;37.132;2022-08-23T12:06:55;7.13;;;4.10;;
71395;SDS011;59888;55.814;37.132;2022-08-23T12:16:55;7.50;;;4.50;;
71395;SDS011;59888;55.814;37.132;2022-08-23T12:22:03;11.93;;;4.20;;
71395;SDS011;59888;55.814;37.132;2022-08-23T12:27:15;5.55;;;3.47;;
71395;SDS011;59888;55.814;37.132;2022-08-23T12:41:21;7.22;;;3.30;;
71395;SDS011;59888;55.814;37.132;2022-08-23T12:44:08;5.75;;;3.35;;
71395;SDS011;59888;55.814;37.132;2022-08-23T12:49:05;6.57;;;3.08;;
71395;SDS011;59888;55.814;37.132;2022-08-23T12:51:38;5.78;;;3.40;;
71395;SDS011;59888;55.814;37.132;2022-08-23T12:54:14;5.97;;;3.15;;
71395;SDS011;59888;55.814;37.132;2022-08-23T12:56:43;5.97;;;3.38;;
71395;SDS011;59888;55.814;37.132;2022-08-23T12:59:26;4.90;;;3.65;;
71395;SDS011;59888;55.814;37.132;2022-08-23T13:01:54;6.90;;;2.95;;
71395;SDS011;59888;55.814;37.132;2022-08-23T13:04:19;8.70;;;3.65;;
71395;SDS011;59888;55.814;37.132;2022-08-23T13:07:05;4.30;;;3.20;;
71395;SDS011;59888;55.814;37.132;2022-08-23T13:09:37;5.50;;;3.40;;
71395;SDS011;59888;55.814;37.132;2022-08-23T13:12:05;5.47;;;3.35;;
71395;SDS011;59888;55.814;37.132;2022-08-23T13:22:32;5.25;;;3.50;;
71395;SDS011;59888;55.814;37.132;2022-08-23T13:30:19;4.72;;;3.38;;
71395;SDS011;59888;55.814;37.132;2022-08-23T13:32:46;5.32;;;3.30;;
71395;SDS011;59888;55.814;37.132;2022-08-23T13:40:42;7.70;;;3.70;;
71395;SDS011;59888;55.814;37.132;2022-08-23T13:43:19;6.05;;;3.10;;
71395;SDS011;59888;55.814;37.132;2022-08-23T13:45:51;4.10;;;3.05;;
71395;SDS011;59888;55.814;37.132;2022-08-23T13:50:47;4.53;;;3.33;;
71395;SDS011;59888;55.814;37.132;2022-08-23T13:53:13;8.07;;;3.38;;
71395;SDS011;59888;55.814;37.132;2022-08-23T13:55:40;5.90;;;3.50;;
71395;SDS011;59888;55.814;37.132;2022-08-23T13:58:10;5.20;;;3.80;;
71395;SDS011;59888;55.814;37.132;2022-08-23T14:00:39;6.70;;;3.75;;
71395;SDS011;59888;55.814;37.132;2022-08-23T14:03:05;7.43;;;3.70;;
71395;SDS011;59888;55.814;37.132;2022-08-23T14:05:32;6.90;;;3.80;;
71395;SDS011;59888;55.814;37.132;2022-08-23T14:07:58;8.32;;;3.83;;
71395;SDS011;59888;55.814;37.132;2022-08-23T14:10:24;4.88;;;3.88;;
71395;SDS011;59888;55.814;37.132;2022-08-23T14:12:51;7.60;;;4.07;;
71395;SDS011;59888;55.814;37.132;2022-08-23T14:15:18;6.65;;;4.05;;
71395;SDS011;59888;55.814;37.132;2022-08-23T14:17:46;5.70;;;4.38;;
71395;SDS011;59888;55.814;37.132;2022-08-23T14:20:15;7.57;;;3.92;;
71395;SDS011;59888;55.814;37.132;2022-08-23T14:22:43;7.57;;;3.95;;
71395;SDS011;59888;55.814;37.132;2022-08-23T14:25:09;6.47;;;3.90;;
71395;SDS011;59888;55.814;37.132;2022-08-23T14:27:37;6.80;;;4.20;;
71395;SDS011;59888;55.814;37.132;2022-08-23T14:30:10;10.07;;;4.10;;
71395;SDS011;59888;55.814;37.132;2022-08-23T14:32:50;6.10;;;3.65;;
71395;SDS011;59888;55.814;37.132;2022-08-23T14:35:16;7.05;;;4.25;;
71395;SDS011;59888;55.814;37.132;2022-08-23T14:37:42;9.80;;;3.97;;
71395;SDS011;59888;55.814;37.132;2022-08-23T14:40:08;8.50;;;4.32;;
71395;SDS011;59888;55.814;37.132;2022-08-23T14:42:35;6.63;;;4.38;;
71395;SDS011;59888;55.814;37.132;2022-08-23T14:45:01;7.88;;;4.25;;
71395;SDS011;59888;55.814;37.132;2022-08-23T14:47:28;8.23;;;4.00;;
71395;SDS011;59888;55.814;37.132;2022-08-23T14:49:55;7.30;;;4.47;;
71395;SDS011;59888;55.814;37.132;2022-08-23T14:52:21;10.18;;;4.45;;
71395;SDS011;59888;55.814;37.132;2022-08-23T14:54:47;8.38;;;4.05;;
71395;SDS011;59888;55.814;37.132;2022-08-23T14:57:13;6.45;;;4.20;;
71395;SDS011;59888;55.814;37.132;2022-08-23T14:59:39;6.90;;;4.28;;
71395;SDS011;59888;55.814;37.132;2022-08-23T15:02:05;6.30;;;3.70;;
71395;SDS011;59888;55.814;37.132;2022-08-23T15:04:34;8.93;;;4.40;;
71395;SDS011;59888;55.814;37.132;2022-08-23T15:07:03;12.15;;;4.70;;
71395;SDS011;59888;55.814;37.132;2022-08-23T15:09:29;11.70;;;4.25;;
71395;SDS011;59888;55.814;37.132;2022-08-23T15:11:55;6.25;;;4.25;;
71395;SDS011;59888;55.814;37.132;2022-08-23T15:14:21;6.55;;;4.68;;
71395;SDS011;59888;55.814;37.132;2022-08-23T15:16:46;10.00;;;5.20;;
71395;SDS011;59888;55.814;37.132;2022-08-23T15:19:13;11.63;;;5.10;;
71395;SDS011;59888;55.814;37.132;2022-08-23T15:21:39;10.32;;;4.75;;
71395;SDS011;59888;55.814;37.132;2022-08-23T15:24:05;7.75;;;4.78;;
71395;SDS011;59888;55.814;37.132;2022-08-23T15:26:31;8.57;;;4.95;;
71395;SDS011;59888;55.814;37.132;2022-08-23T15:28:58;12.82;;;5.20;;
71395;SDS011;59888;55.814;37.132;2022-08-23T15:31:25;7.10;;;5.60;;
71395;SDS011;59888;55.814;37.132;2022-08-23T15:33:51;10.63;;;5.50;;
71395;SDS011;59888;55.814;37.132;2022-08-23T15:36:17;12.75;;;4.95;;
71395;SDS011;59888;55.814;37.132;2022-08-23T15:38:44;12.90;;;5.70;;
71395;SDS011;59888;55.814;37.132;2022-08-23T15:41:12;9.57;;;4.80;;
71395;SDS011;59888;55.814;37.132;2022-08-23T15:43:39;8.25;;;5.25;;
71395;SDS011;59888;55.814;37.132;2022-08-23T15:46:06;11.55;;;5.40;;
71395;SDS011;59888;55.814;37.132;2022-08-23T15:48:35;11.40;;;4.93;;
71395;SDS011;59888;55.814;37.132;2022-08-23T15:51:06;10.33;;;5.87;;
71395;SDS011;59888;55.814;37.132;2022-08-23T15:53:35;11.20;;;5.57;;
71395;SDS011;59888;55.814;37.132;2022-08-23T15:56:07;9.45;;;5.80;;
71395;SDS011;59888;55.814;37.132;2022-08-23T15:58:35;12.25;;;5.68;;
71395;SDS011;59888;55.814;37.132;2022-08-23T16:01:02;10.57;;;5.47;;
71395;SDS011;59888;55.814;37.132;2022-08-23T16:03:28;10.88;;;5.13;;
71395;SDS011;59888;55.814;37.132;2022-08-23T16:05:54;13.32;;;5.60;;
71395;SDS011;59888;55.814;37.132;2022-08-23T16:08:27;13.55;;;5.85;;
71395;SDS011;59888;55.814;37.132;2022-08-23T16:10:56;12.77;;;5.88;;
71395;SDS011;59888;55.814;37.132;2022-08-23T16:13:22;12.77;;;5.78;;
71395;SDS011;59888;55.814;37.132;2022-08-23T16:15:48;15.30;;;5.78;;
71395;SDS011;59888;55.814;37.132;2022-08-23T16:18:14;10.48;;;5.43;;
71395;SDS011;59888;55.814;37.132;2022-08-23T16:20:41;11.15;;;5.40;;
71395;SDS011;59888;55.814;37.132;2022-08-23T16:23:07;10.68;;;5.97;;
71395;SDS011;59888;55.814;37.132;2022-08-23T16:25:33;14.45;;;6.05;;
71395;SDS011;59888;55.814;37.132;2022-08-23T16:27:59;13.60;;;6.03;;
71395;SDS011;59888;55.814;37.132;2022-08-23T16:30:25;15.15;;;5.85;;
71395;SDS011;59888;55.814;37.132;2022-08-23T16:32:53;10.82;;;5.80;;
71395;SDS011;59888;55.814;37.132;2022-08-23T16:35:20;15.18;;;5.50;;
71395;SDS011;59888;55.814;37.132;2022-08-23T16:37:45;9.45;;;5.57;;
71395;SDS011;59888;55.814;37.132;2022-08-23T16:40:11;9.25;;;5.57;;
71395;SDS011;59888;55.814;37.132;2022-08-23T16:42:37;10.27;;;5.00;;
71395;SDS011;59888;55.814;37.132;2022-08-23T16:45:03;11.43;;;5.57;;
71395;SDS011;59888;55.814;37.132;2022-08-23T16:47:31;11.80;;;5.60;;
71395;SDS011;59888;55.814;37.132;2022-08-23T16:49:59;11.30;;;6.00;;
71395;SDS011;59888;55.814;37.132;2022-08-23T16:52:25;9.60;;;5.68;;
71395;SDS011;59888;55.814;37.132;2022-08-23T16:54:51;15.07;;;6.13;;
71395;SDS011;59888;55.814;37.132;2022-08-23T16:57:16;12.52;;;6.15;;
71395;SDS011;59888;55.814;37.132;2022-08-23T16:59:42;8.18;;;5.85;;